Terminal Aerodrome Forecast
Issued by NWS Charleston, WV

Current Version | Previous Version | Text Only | Print | Product List | Glossary Off
Versions: 1 2 3 4 5 6 7 8 9 10 11 12 13 14 15 16 17 18 19 20 21 22 23 24

000
FTUS41 KRLX 301522 AAA
TAFEKN
TAF AMD
KEKN 301522Z 3015/3112 VRB03KT P6SM SCT040 BKN200
     FM302200 VRB03KT P6SM VCTS SCT060CB
     FM310600 00000KT 2SM BR BKN100=

USA.gov is the U.S. government's official web portal to all federal, state and local government web resources and services.